• Join FlightAware (Why Join?)
  • Login
  • US Flag 
01:02PM EST


 

Airport Tracker/Info


-or-


 

Live Flight TrackerFlight Track Log ✈ EJA922 ✈ 10-Oct-2013 ✈ KRNO - KMSP

Flight Track Log - Related Links

Times and Time Zones

All times are in EDT time to prevent confusion due to time zone crossing. See the EJA922 flight status page for this flight to view local times or setup timezone preferences in your user account.

Time Position Orientation Groundspeed Altitude Reporting Facility
EDT Latitude Longitude Course Direction KTS MPH feet Rate Location/Type
01:51PM 39.5667 -119.7833 30° Northeast 228 262 7,600  Level Northern Cal TRACON
01:52PM 39.6333 -119.7333 30° Northeast 298 343 10,200 2,340 Climbing Northern Cal TRACON
01:53PM 39.6594 -119.6833 56° Northeast 316 364 11,400 2,220 Climbing Oakland Center
01:54PM 39.7244 -119.5872 49° Northeast 340 391 13,900 2,340 Climbing Oakland Center
01:55PM 39.7919 -119.4856 49° Northeast 360 414 16,300 2,520 Climbing Oakland Center
01:56PM 39.8600 -119.3797 50° Northeast 374 430 19,100 2,340 Climbing Oakland Center
01:57PM 39.9258 -119.2756 50° Northeast 372 428 21,200 1,800 Climbing Oakland Center
01:58PM 39.9944 -119.1647 51° Northeast 384 442 22,800 1,440 Climbing Oakland Center
01:59PM 40.0644 -119.0503 51° Northeast 398 458 24,200 1,560 Climbing Oakland Center
02:00PM 40.1514 -118.9053 52° Northeast 418 481 26,100 1,560 Climbing Oakland Center
02:01PM 40.2261 -118.7817 52° Northeast 429 494 27,400 1,260 Climbing Oakland Center
02:02PM 40.2811 -118.6322 64° Northeast 461 531 28,700 1,200 Climbing Oakland Center
02:03PM 40.3289 -118.4728 68° East 468 539 30,000 1,500 Climbing Salt Lake Center
02:04PM 40.3767 -118.3097 69° East 475 547 31,800 1,440 Climbing Oakland Center
02:05PM 40.4247 -118.1478 69° East 476 548 33,000 900 Climbing Oakland Center
02:06PM 40.4756 -117.9725 69° East 495 570 33,800 1,200 Climbing Salt Lake Center
02:07PM 40.5319 -117.7814 69° East 503 579 35,500 1,500 Climbing Oakland Center
02:08PM 40.5786 -117.6175 69° East 501 577 36,900 1,440 Climbing Oakland Center
02:09PM 40.6333 -117.4242 69° East 498 573 38,600 1,440 Climbing Salt Lake Center
02:10PM 40.6794 -117.2625 69° East 493 567 40,000 1,140 Climbing Salt Lake Center
02:11PM 40.7328 -117.0756 69° East 485 558 41,000 480 Climbing Salt Lake Center
02:12PM 40.7792 -116.9086 70° East 497 572 41,000  Level Salt Lake Center
02:13PM 40.8269 -116.7358 70° East 516 594 41,000  Level Salt Lake Center
02:14PM 40.8833 -116.5325 70° East 524 603 41,000  Level Salt Lake Center
02:15PM 40.9303 -116.3603 70° East 521 600 41,000  Level Salt Lake Center
02:17PM 40.9844 -116.1550 71° East 526 605 41,000  Level Salt Lake Center
02:18PM 41.0336 -115.9817 69° East 525 604 41,000  Level Salt Lake Center
02:19PM 41.0881 -115.7786 70° East 523 602 41,000  Level Salt Lake Center
02:20PM 41.1336 -115.6044 71° East 522 601 41,000  Level Salt Lake Center
02:21PM 41.1875 -115.4011 71° East 522 601 41,000  Level Salt Lake Center
02:22PM 41.2319 -115.2272 71° East 521 600 41,000  Level Salt Lake Center
02:23PM 41.2769 -115.0561 71° East 515 593 41,000  Level Salt Lake Center
02:24PM 41.3292 -114.8556 71° East 512 589 41,000  Level Salt Lake Center
02:25PM 41.3697 -114.6919 72° East 512 589 41,000  Level Salt Lake Center
02:26PM 41.4256 -114.4767 71° East 512 589 41,000  Level Salt Lake Center
02:27PM 41.4714 -114.2969 71° East 513 590 41,000  Level Salt Lake Center
02:28PM 41.5158 -114.1161 72° East 514 592 41,000  Level Salt Lake Center
02:29PM 41.5608 -113.9356 72° East 513 590 41,000  Level Salt Lake Center
02:30PM 41.6047 -113.7547 72° East 512 589 41,000  Level Salt Lake Center
02:31PM 41.6497 -113.5719 72° East 517 595 41,000  Level Salt Lake Center
02:32PM 41.7033 -113.3519 72° East 519 597 41,000  Level Salt Lake Center
02:33PM 41.7472 -113.1681 72° East 520 598 41,000  Level Salt Lake Center
02:34PM 41.7914 -112.9844 72° East 518 596 41,000  Level Salt Lake Center
02:35PM 41.8356 -112.7992 72° East 520 598 41,000  Level Salt Lake Center
02:36PM 41.8769 -112.6133 73° East 521 600 41,000  Level Salt Lake Center
02:37PM 41.9219 -112.4261 72° East 525 604 41,000  Level Salt Lake Center
02:38PM 41.9722 -112.2061 73° East 516 594 41,000  Level Salt Lake Center
02:39PM 42.0136 -112.0231 73° East 513 590 41,000  Level Salt Lake Center
02:40PM 42.0553 -111.8386 73° East 514 592 41,000  Level Salt Lake Center
02:41PM 42.0978 -111.6536 73° East 515 593 41,000  Level Salt Lake Center
02:42PM 42.1389 -111.4675 73° East 517 595 41,000  Level Salt Lake Center
02:43PM 42.1794 -111.2831 73° East 516 594 41,000  Level Salt Lake Center
02:44PM 42.2192 -111.0986 74° East 514 592 41,000  Level Salt Lake Center
02:45PM 42.2672 -110.8789 73° East 515 593 41,000  Level Salt Lake Center
02:46PM 42.3061 -110.7019 73° East 514 592 41,000  Level Salt Lake Center
02:48PM 42.3494 -110.4936 74° East 516 594 41,000  Level Salt Lake Center
02:49PM 42.3881 -110.3139 74° East 519 597 41,000  Level Salt Lake Center
02:50PM 42.4250 -110.1336 74° East 519 597 41,000  Level Salt Lake Center
02:51PM 42.4689 -109.9219 74° East 522 601 41,000  Level Salt Lake Center
02:52PM 42.5061 -109.7406 74° East 522 601 41,000  Level Salt Lake Center
02:53PM 42.5492 -109.5272 75° East 524 603 41,000  Level Salt Lake Center
02:54PM 42.5867 -109.3453 74° East 523 602 41,000  Level Salt Lake Center
02:55PM 42.6303 -109.1278 75° East 531 611 41,000  Level Salt Lake Center
02:56PM 42.6669 -108.9422 75° East 532 612 41,000  Level Salt Lake Center
02:57PM 42.7092 -108.7239 75° East 533 613 41,000  Level Salt Lake Center
02:58PM 42.7444 -108.5378 75° East 532 612 41,000  Level Salt Lake Center
02:59PM 42.7869 -108.3225 75° East 529 609 41,000  Level Salt Lake Center
03:00PM 42.8217 -108.1333 76° East 534 615 41,000  Level Salt Lake Center
03:01PM 42.8564 -107.9439 76° East 538 619 41,000  Level Salt Lake Center
03:02PM 42.8983 -107.7231 75° East 538 619 41,000  Level Salt Lake Center
03:03PM 42.9333 -107.5317 76° East 542 624 41,000  Level Salt Lake Center
03:04PM 42.9703 -107.3228 76° East 544 626 41,000  Level Salt Lake Center
03:05PM 43.0053 -107.1217 77° East 547 629 41,000  Level Salt Lake Center
03:06PM 43.0467 -106.8992 76° East 544 626 41,000  Level Salt Lake Center
03:07PM 43.0744 -106.7364 77° East 547 629 41,000  Level Denver Center
03:08PM 43.1086 -106.5425 76° East 547 629 41,000  Level Denver Center
03:09PM 43.1478 -106.3164 77° East 547 629 41,000  Level Denver Center
03:10PM 43.1797 -106.1225 77° East 546 628 41,000  Level Denver Center
03:11PM 43.2125 -105.9283 77° East 546 628 41,000  Level Denver Center
03:12PM 43.2506 -105.6992 77° East 550 633 41,000  Level Denver Center
03:13PM 43.2814 -105.5036 78° East 548 631 41,000  Level Denver Center
03:14PM 43.3194 -105.2719 77° East 553 636 41,000  Level Denver Center
03:15PM 43.3519 -105.0744 77° East 553 636 41,000  Level Denver Center
03:16PM 43.3881 -104.8411 78° East 556 640 41,000  Level Denver Center
03:17PM 43.4189 -104.6400 78° East 557 641 41,000  Level Denver Center
03:18PM 43.4556 -104.4036 78° East 562 647 41,000  Level Denver Center
03:19PM 43.4858 -104.2003 78° East 564 649 41,000  Level Denver Center
03:20PM 43.5167 -103.9972 78° East 564 649 41,000  Level Denver Center
03:21PM 43.5517 -103.7581 79° East 569 655 41,000  Level Denver Center
03:22PM 43.5822 -103.5525 78° East 570 656 41,000  Level Denver Center
03:23PM 43.6181 -103.3108 78° East 573 659 41,000  Level Denver Center
03:24PM 43.6461 -103.1003 79° East 579 666 41,000  Level Denver Center
03:25PM 43.6800 -102.8550 79° East 582 670 41,000  Level Denver Center
03:26PM 43.7078 -102.6447 80° East 582 670 41,000  Level Denver Center
03:28PM 43.7408 -102.3978 79° East 584 672 41,000  Level Denver Center
03:29PM 43.7681 -102.1850 80° East 586 674 41,000  Level Denver Center
03:30PM 43.7964 -101.9733 79° East 588 677 41,000  Level Denver Center
03:31PM 43.8256 -101.7508 80° East 590 679 41,000  Level Denver Center
03:32PM 43.8586 -101.4814 80° East 594 684 41,000  Level Denver Center
03:33PM 43.8867 -101.2564 80° East 594 684 41,000  Level Denver Center
03:34PM 43.9133 -101.0311 81° East 594 684 41,000  Level Denver Center
03:35PM 43.9397 -100.8067 81° East 593 682 41,000  Level Denver Center
03:36PM 43.9664 -100.5794 81° East 598 688 41,000  Level Denver Center
03:37PM 44.0028 -100.2647 81° East 597 687 41,000  Level Minneapolis Center
03:38PM 44.0283 -100.0403 81° East 594 684 41,000  Level Minneapolis Center
03:39PM 44.0539 -99.8169 81° East 591 680 41,000  Level Minneapolis Center
03:40PM 44.0775 -99.5917 82° East 592 681 41,000  Level Minneapolis Center
03:41PM 44.1011 -99.3656 82° East 594 684 41,000  Level Minneapolis Center
03:42PM 44.1297 -99.0942 82° East 594 684 41,000  Level Minneapolis Center
03:43PM 44.1531 -98.8672 82° East 595 685 41,000  Level Minneapolis Center
03:44PM 44.1764 -98.6456 82° East 594 684 41,000  Level Minneapolis Center
03:45PM 44.1978 -98.4181 82° East 595 685 41,000  Level Minneapolis Center
03:46PM 44.2194 -98.1894 82° East 596 686 41,000  Level Minneapolis Center
03:47PM 44.2447 -97.9156 83° East 595 685 41,000  Level Minneapolis Center
03:48PM 44.2656 -97.6853 83° East 597 687 41,000  Level Minneapolis Center
03:49PM 44.2858 -97.4564 83° East 597 687 41,000  Level Minneapolis Center
03:50PM 44.3053 -97.2275 83° East 595 685 41,000  Level Minneapolis Center
03:52PM 44.3242 -96.9986 83° East 594 684 41,000  Level Minneapolis Center
03:53PM 44.3436 -96.7689 83° East 595 685 41,000 -60 Level Minneapolis Center
03:54PM 44.3633 -96.5397 83° East 593 682 40,900 -780 Descending Minneapolis Center
03:55PM 44.3808 -96.3094 84° East 590 679 39,500 -1,500 Descending Minneapolis Center
03:56PM 44.4003 -96.0817 83° East 581 669 37,800 -2,400 Descending Minneapolis Center
03:57PM 44.4197 -95.8122 84° East 576 663 34,600 -3,000 Descending Minneapolis Center
03:58PM 44.4350 -95.6028 84° East 549 632 31,600 -2,760 Descending Minneapolis Center
03:59PM 44.4486 -95.4122 84° East 502 578 28,900 -2,520 Descending Minneapolis Center
04:00PM 44.4600 -95.2314 85° East 471 542 26,400 -2,340 Descending Minneapolis Center
04:01PM 44.4819 -95.0592 80° East 453 521 24,100 -2,280 Descending Minneapolis Center
04:02PM 44.5228 -94.9022 70° East 436 502 21,800 -2,400 Descending Minneapolis Center
04:03PM 44.5656 -94.7203 72° East 417 480 19,200 -2,280 Descending Minneapolis Center
04:04PM 44.5950 -94.5908 72° East 400 460 17,200 -1,980 Descending Minneapolis Center
04:05PM 44.6267 -94.4478 73° East 387 445 15,200 -2,220 Descending Minneapolis Center
04:06PM 44.6658 -94.2783 72° East 382 440 12,700 -2,100 Descending Minneapolis Center
04:07PM 44.7003 -94.1253 72° East 412 474 10,900 -1,020 Descending Minneapolis Center
04:08PM 44.7508 -93.9892 62° Northeast 372 428 10,700 -480 Descending Minneapolis Center
04:09PM 44.8031 -93.8864 54° Northeast 322 371 10,000 -780 Descending Minneapolis Center
04:10PM 44.8486 -93.7978 54° Northeast 281 323 9,100 -1,140 Descending Minneapolis Center
04:11PM 44.8911 -93.7119 55° Northeast 267 307 7,700 -1,500 Descending Minneapolis Center
04:12PM 44.9408 -93.6106 55° Northeast 260 299 6,000 -1,260 Descending Minneapolis Center
04:13PM 44.9547 -93.5261 77° East 223 257 5,100 -780 Descending Minneapolis Center
04:14PM 44.9500 -93.4500 95° East 195 224 4,400 -960 Descending Minneapolis Center
04:15PM 44.9461 -93.3811 95° East 179 206 3,200 -1,020 Descending Minneapolis Center
04:16PM 44.9278 -93.3239 114° Southeast 161 185 2,300 -780 Descending Minneapolis Center
04:17PM 44.9053 -93.2742 123° Southeast 152 175 1,600 -720 Descending Minneapolis Center
04:19PM 44.8820 -93.2218 90° East  Level Estimated
04:26PM 44.8820 -93.2218 90° East  Level Estimated
04:27PM 44.8820 -93.2218 90° East  Level Estimated